createdAt,value
2016-05-31T00:00:28.172Z,24.94
2016-05-31T00:01:28.174Z,24.92
2016-05-31T00:02:28.364Z,24.93
2016-05-31T00:03:28.352Z,24.87
2016-05-31T00:04:28.369Z,24.9
2016-05-31T00:05:28.388Z,24.94
2016-05-31T00:06:28.391Z,24.87
2016-05-31T00:07:28.877Z,24.87
2016-05-31T00:08:28.302Z,24.97
2016-05-31T00:09:28.274Z,24.83
2016-05-31T00:10:28.433Z,24.89
2016-05-31T00:11:28.310Z,24.93
2016-05-31T00:12:28.454Z,24.89
2016-05-31T00:13:28.315Z,24.92
2016-05-31T00:14:28.490Z,24.9
2016-05-31T00:15:28.321Z,24.86
2016-05-31T00:16:28.480Z,24.93
2016-05-31T00:17:28.498Z,24.96
2016-05-31T00:18:28.516Z,24.82
2016-05-31T00:19:28.379Z,24.93
2016-05-31T00:20:28.382Z,24.77
2016-05-31T00:21:28.384Z,24.9
2016-05-31T00:22:28.777Z,24.89
2016-05-31T00:23:28.701Z,24.92
2016-05-31T00:24:28.594Z,24.83
2016-05-31T00:25:28.582Z,24.96
2016-05-31T00:26:28.600Z,24.92
2016-05-31T00:27:28.603Z,24.86
2016-05-31T00:28:28.480Z,24.89
2016-05-31T00:29:28.468Z,24.94
2016-05-31T00:30:28.642Z,24.93
2016-05-31T00:31:28.630Z,24.83
2016-05-31T00:32:28.663Z,24.83
2016-05-31T00:33:28.650Z,24.93
2016-05-31T00:34:28.685Z,24.83
2016-05-31T00:35:28.688Z,24.82
2016-05-31T00:36:28.690Z,24.89
2016-05-31T00:37:29.161Z,24.9
2016-05-31T00:38:28.945Z,24.86
2016-05-31T00:39:28.730Z,24.78
2016-05-31T00:40:28.747Z,24.89
2016-05-31T00:41:28.765Z,24.78
2016-05-31T00:42:28.612Z,24.86
2016-05-31T00:43:28.771Z,24.78
2016-05-31T00:44:28.790Z,24.8
2016-05-31T00:45:28.776Z,24.9
2016-05-31T00:46:28.810Z,24.85
2016-05-31T00:47:28.641Z,24.86
2016-05-31T00:48:28.691Z,24.82
2016-05-31T00:49:28.522Z,24.87
2016-05-31T00:50:28.853Z,24.77
2016-05-31T00:51:28.855Z,24.92
2016-05-31T00:52:28.874Z,24.78
2016-05-31T00:53:29.204Z,24.83
2016-05-31T00:54:28.864Z,24.85
2016-05-31T00:55:28.897Z,24.86
2016-05-31T00:56:28.900Z,24.92
2016-05-31T00:57:28.918Z,24.9
2016-05-31T00:58:28.920Z,24.86
2016-05-31T00:59:28.939Z,24.78
2016-05-31T01:00:28.786Z,24.83
2016-05-31T01:01:28.975Z,24.86
2016-05-31T01:02:28.963Z,24.8
2016-05-31T01:03:28.981Z,24.83
2016-05-31T01:04:29.016Z,24.85
2016-05-31T01:05:28.830Z,24.74
2016-05-31T01:06:28.864Z,24.86
2016-05-31T01:07:29.180Z,24.83
2016-05-31T01:08:28.932Z,24.87
2016-05-31T01:09:29.029Z,24.77
2016-05-31T01:10:29.047Z,24.77
2016-05-31T01:11:28.909Z,24.85
2016-05-31T01:12:29.068Z,24.9
2016-05-31T01:13:29.086Z,24.86
2016-05-31T01:14:29.073Z,24.9
2016-05-31T01:15:29.107Z,24.8
2016-05-31T01:16:29.110Z,24.83
2016-05-31T01:17:29.128Z,24.85
2016-05-31T01:18:28.974Z,24.8
2016-05-31T01:19:29.149Z,24.85
2016-05-31T01:20:29.167Z,24.8
2016-05-31T01:21:29.170Z,24.89
2016-05-31T01:22:29.189Z,24.82
2016-05-31T01:23:29.378Z,24.87
2016-05-31T01:24:29.523Z,24.89
2016-05-31T01:25:29.243Z,24.78
2016-05-31T01:26:29.262Z,24.85
2016-05-31T01:27:29.217Z,24.82
2016-05-31T01:28:29.236Z,24.75
2016-05-31T01:29:29.098Z,24.83
2016-05-31T01:30:29.257Z,24.87
2016-05-31T01:31:29.275Z,24.85
2016-05-31T01:32:29.278Z,24.78
2016-05-31T01:33:29.296Z,24.77
2016-05-31T01:34:29.300Z,24.83
2016-05-31T01:35:29.317Z,24.83
2016-05-31T01:36:29.319Z,24.78
2016-05-31T01:37:29.292Z,24.86
2016-05-31T01:38:29.185Z,24.77
2016-05-31T01:39:29.391Z,24.74
2016-05-31T01:40:29.362Z,24.83
2016-05-31T01:41:29.380Z,24.87
2016-05-31T01:42:29.242Z,24.8
2016-05-31T01:43:29.229Z,24.85
2016-05-31T01:44:29.388Z,24.75
2016-05-31T01:45:29.407Z,24.8
2016-05-31T01:46:29.424Z,24.89
2016-05-31T01:47:29.412Z,24.86
2016-05-31T01:48:29.446Z,24.83
2016-05-31T01:49:29.449Z,24.92
2016-05-31T01:50:29.467Z,24.75
2016-05-31T01:51:29.454Z,24.86
2016-05-31T01:52:30.754Z,24.77
2016-05-31T01:53:29.787Z,24.75
2016-05-31T01:54:29.525Z,24.86
2016-05-31T01:55:29.356Z,24.8
2016-05-31T01:56:29.531Z,24.82
2016-05-31T01:57:29.376Z,24.86
2016-05-31T01:58:29.567Z,24.85
2016-05-31T01:59:29.538Z,24.82
2016-05-31T02:00:29.556Z,24.86
2016-05-31T02:01:29.559Z,24.83
2016-05-31T02:02:29.593Z,24.74
2016-05-31T02:03:29.424Z,24.78
2016-05-31T02:04:29.598Z,24.71
2016-05-31T02:05:29.460Z,24.82
2016-05-31T02:06:29.479Z,24.7
2016-05-31T02:07:29.481Z,24.83
2016-05-31T02:08:29.640Z,24.82
2016-05-31T02:09:29.502Z,24.75
2016-05-31T02:10:29.505Z,24.78
2016-05-31T02:11:29.680Z,24.86
2016-05-31T02:12:29.683Z,24.75
2016-05-31T02:13:29.701Z,24.78
2016-05-31T02:14:29.704Z,24.82
2016-05-31T02:15:29.722Z,24.77
2016-05-31T02:16:29.568Z,24.7
2016-05-31T02:17:29.712Z,24.85
2016-05-31T02:18:29.746Z,24.83
2016-05-31T02:19:29.749Z,24.85
2016-05-31T02:20:29.766Z,24.89
2016-05-31T02:21:29.629Z,24.71
2016-05-31T02:22:30.818Z,24.77
2016-05-31T02:23:29.806Z,24.78
2016-05-31T02:24:29.668Z,24.8
2016-05-31T02:25:29.843Z,24.74
2016-05-31T02:26:29.815Z,24.83
2016-05-31T02:27:29.692Z,24.75
2016-05-31T02:28:29.851Z,24.74
2016-05-31T02:29:29.557Z,24.82
2016-05-31T02:30:29.887Z,24.78
2016-05-31T02:31:29.875Z,24.77
2016-05-31T02:32:29.877Z,24.75
2016-05-31T02:33:29.895Z,24.74
2016-05-31T02:34:29.601Z,24.74
2016-05-31T02:35:29.917Z,24.78
2016-05-31T02:36:29.778Z,24.78
2016-05-31T02:37:30.000Z,24.83
2016-05-31T02:38:29.814Z,24.77
2016-05-31T02:39:29.692Z,24.82
2016-05-31T02:40:29.961Z,24.77
2016-05-31T02:41:29.963Z,24.75
2016-05-31T02:42:30.200Z,24.77
2016-05-31T02:43:30.000Z,24.77
2016-05-31T02:44:30.019Z,24.77
2016-05-31T02:45:29.849Z,24.74
2016-05-31T02:46:30.024Z,24.71
2016-05-31T02:47:29.885Z,24.78
2016-05-31T02:48:30.060Z,24.78
2016-05-31T02:49:30.048Z,24.78
2016-05-31T02:50:30.082Z,24.75
2016-05-31T02:51:30.085Z,24.74
2016-05-31T02:52:30.321Z,24.74
2016-05-31T02:53:30.168Z,24.78
2016-05-31T02:54:30.123Z,24.78
2016-05-31T02:55:30.126Z,24.77
2016-05-31T02:56:30.129Z,24.78
2016-05-31T02:57:30.148Z,24.75
2016-05-31T02:58:30.150Z,24.75
2016-05-31T02:59:30.168Z,24.8
2016-05-31T03:00:30.170Z,24.71
2016-05-31T03:01:30.174Z,24.71
2016-05-31T03:02:30.036Z,24.75
2016-05-31T03:03:30.211Z,24.74
2016-05-31T03:04:30.213Z,24.74
2016-05-31T03:05:30.231Z,24.77
2016-05-31T03:06:30.078Z,24.78
2016-05-31T03:07:30.236Z,24.77
2016-05-31T03:08:30.100Z,24.75
2016-05-31T03:09:30.273Z,24.77
2016-05-31T03:10:30.261Z,24.77
2016-05-31T03:11:30.294Z,24.8
2016-05-31T03:12:30.140Z,24.75
2016-05-31T03:13:30.144Z,24.74
2016-05-31T03:14:30.333Z,24.8
2016-05-31T03:15:30.336Z,24.75
2016-05-31T03:16:30.339Z,24.7
2016-05-31T03:17:30.326Z,24.75
2016-05-31T03:18:30.344Z,24.78
2016-05-31T03:19:30.363Z,24.75
2016-05-31T03:20:30.224Z,24.8
2016-05-31T03:21:30.415Z,24.78
2016-05-31T03:22:30.387Z,24.74
2016-05-31T03:23:30.749Z,24.69
2016-05-31T03:24:30.267Z,24.71
2016-05-31T03:25:30.441Z,24.75
2016-05-31T03:26:30.429Z,24.71
2016-05-31T03:27:30.446Z,24.78
2016-05-31T03:28:30.448Z,24.69
2016-05-31T03:29:30.468Z,24.75
2016-05-31T03:30:30.470Z,24.8
2016-05-31T03:31:30.473Z,24.74
2016-05-31T03:32:30.335Z,24.75
2016-05-31T03:33:30.212Z,24.75
2016-05-31T03:34:30.372Z,24.8
2016-05-31T03:35:30.531Z,24.8
2016-05-31T03:36:30.550Z,24.78
2016-05-31T03:37:30.583Z,24.74
2016-05-31T03:38:31.508Z,24.74
2016-05-31T03:39:30.636Z,24.75
2016-05-31T03:40:30.591Z,24.75
2016-05-31T03:41:30.281Z,24.77
2016-05-31T03:42:30.596Z,24.77
2016-05-31T03:43:30.614Z,24.77
2016-05-31T03:44:30.602Z,24.78
2016-05-31T03:45:30.635Z,24.74
2016-05-31T03:46:30.655Z,24.75
2016-05-31T03:47:30.641Z,24.78
2016-05-31T03:48:30.659Z,24.75
2016-05-31T03:49:30.381Z,24.74
2016-05-31T03:50:30.524Z,24.77
2016-05-31T03:51:30.714Z,24.77
2016-05-31T03:52:30.718Z,24.77
2016-05-31T03:53:30.735Z,24.78
2016-05-31T03:54:30.582Z,24.82
2016-05-31T03:55:30.585Z,24.83
2016-05-31T03:56:30.743Z,24.78
2016-05-31T03:57:30.606Z,24.78
2016-05-31T03:58:30.749Z,24.74
2016-05-31T03:59:30.782Z,24.8
2016-05-31T04:00:30.785Z,24.75
2016-05-31T04:01:30.819Z,24.77
2016-05-31T04:02:30.651Z,24.74
2016-05-31T04:03:30.653Z,24.86
2016-05-31T04:04:30.827Z,24.78
2016-05-31T04:05:30.831Z,24.75
2016-05-31T04:06:30.833Z,24.71
2016-05-31T04:07:30.866Z,24.86
2016-05-31T04:08:30.744Z,24.8
2016-05-31T04:09:30.889Z,24.8
2016-05-31T04:10:30.875Z,24.71
2016-05-31T04:11:30.908Z,24.71
2016-05-31T04:12:30.912Z,24.69
2016-05-31T04:13:30.945Z,24.77
2016-05-31T04:14:30.916Z,24.9
2016-05-31T04:15:30.935Z,24.75
2016-05-31T04:16:30.953Z,24.71
2016-05-31T04:17:30.972Z,24.74
2016-05-31T04:18:30.958Z,24.85
2016-05-31T04:19:30.977Z,24.74
2016-05-31T04:20:30.996Z,24.77
2016-05-31T04:21:30.841Z,24.71
2016-05-31T04:22:31.548Z,24.74
2016-05-31T04:23:31.254Z,24.69
2016-05-31T04:24:31.022Z,24.8
2016-05-31T04:25:31.040Z,24.89
2016-05-31T04:26:31.059Z,24.86
2016-05-31T04:27:31.046Z,24.8
2016-05-31T04:28:30.907Z,24.83
2016-05-31T04:29:31.081Z,24.89
2016-05-31T04:30:31.084Z,24.8
2016-05-31T04:31:31.119Z,24.77
2016-05-31T04:32:31.121Z,24.71
2016-05-31T04:33:30.983Z,24.85
2016-05-31T04:34:30.815Z,24.77
2016-05-31T04:35:31.145Z,24.75
2016-05-31T04:36:31.147Z,24.75
2016-05-31T04:37:31.182Z,24.77
2016-05-31T04:38:31.200Z,24.74
2016-05-31T04:39:31.172Z,24.8
2016-05-31T04:40:31.174Z,24.75
2016-05-31T04:41:31.053Z,24.78
2016-05-31T04:42:31.227Z,24.75
2016-05-31T04:43:31.229Z,24.8
2016-05-31T04:44:31.247Z,24.8
2016-05-31T04:45:31.219Z,24.77
2016-05-31T04:46:31.253Z,24.82
2016-05-31T04:47:31.240Z,24.86
2016-05-31T04:48:31.274Z,24.82
2016-05-31T04:49:31.277Z,24.89
2016-05-31T04:50:31.294Z,24.87
2016-05-31T04:51:31.297Z,24.85
2016-05-31T04:52:31.472Z,24.8
2016-05-31T04:53:31.194Z,24.85
2016-05-31T04:54:31.337Z,24.86
2016-05-31T04:55:31.199Z,24.82
2016-05-31T04:56:31.373Z,24.86
2016-05-31T04:57:31.204Z,24.8
2016-05-31T04:58:31.379Z,24.82
2016-05-31T04:59:31.397Z,24.89
2016-05-31T05:00:31.244Z,24.78
2016-05-31T05:01:31.387Z,24.85
2016-05-31T05:02:31.420Z,24.85
2016-05-31T05:03:31.268Z,24.8
2016-05-31T05:04:31.270Z,24.82
2016-05-31T05:05:31.429Z,24.85
2016-05-31T05:06:31.306Z,24.8
2016-05-31T05:07:31.482Z,24.9
2016-05-31T05:08:31.359Z,24.75
2016-05-31T05:09:31.470Z,24.78
2016-05-31T05:10:31.333Z,24.83
2016-05-31T05:11:31.507Z,24.87
2016-05-31T05:12:31.511Z,24.86
2016-05-31T05:13:31.528Z,24.78
2016-05-31T05:14:31.531Z,24.83
2016-05-31T05:15:31.550Z,24.82
2016-05-31T05:16:31.552Z,24.82
2016-05-31T05:17:31.571Z,24.89
2016-05-31T05:18:31.573Z,24.78
2016-05-31T05:19:31.608Z,24.86
2016-05-31T05:20:31.594Z,24.83
2016-05-31T05:21:31.613Z,24.86
2016-05-31T05:22:32.209Z,24.8
2016-05-31T05:23:31.665Z,24.86
2016-05-31T05:24:31.636Z,24.82
2016-05-31T05:25:31.576Z,24.78
2016-05-31T05:26:31.673Z,24.86
2016-05-31T05:27:31.676Z,24.83
2016-05-31T05:28:31.507Z,24.86
2016-05-31T05:29:31.696Z,24.87
2016-05-31T05:30:31.699Z,24.85
2016-05-31T05:31:31.749Z,24.85
2016-05-31T05:32:31.579Z,24.77
2016-05-31T05:33:31.739Z,24.89
2016-05-31T05:34:31.742Z,24.93
2016-05-31T05:35:31.745Z,24.94
2016-05-31T05:36:31.747Z,24.8
2016-05-31T05:37:31.640Z,24.89
2016-05-31T05:38:32.455Z,24.9
2016-05-31T05:39:31.786Z,24.9
2016-05-31T05:40:31.804Z,24.92
2016-05-31T05:41:31.666Z,24.92
2016-05-31T05:42:31.826Z,24.93
2016-05-31T05:43:31.828Z,24.94
2016-05-31T05:44:31.862Z,24.97
2016-05-31T05:45:31.864Z,24.93
2016-05-31T05:46:31.867Z,24.89
2016-05-31T05:47:31.902Z,24.9
2016-05-31T05:48:31.872Z,24.92
2016-05-31T05:49:31.907Z,24.9
2016-05-31T05:50:31.893Z,24.87
2016-05-31T05:51:31.913Z,24.9
2016-05-31T05:52:32.118Z,24.92
2016-05-31T05:53:31.963Z,24.89
2016-05-31T05:54:31.952Z,24.93
2016-05-31T05:55:31.798Z,24.96
2016-05-31T05:56:31.972Z,24.89
2016-05-31T05:57:31.843Z,24.94
2016-05-31T05:58:32.029Z,24.92
2016-05-31T05:59:32.042Z,24.93
2016-05-31T06:00:31.775Z,24.96
2016-05-31T06:01:32.116Z,24.96
2016-05-31T06:02:32.187Z,24.9
2016-05-31T06:03:32.011Z,24.89
2016-05-31T06:04:32.195Z,25
2016-05-31T06:05:32.068Z,24.92
2016-05-31T06:06:32.252Z,24.94
2016-05-31T06:07:32.277Z,24.93
2016-05-31T06:08:32.783Z,24.92
2016-05-31T06:09:32.134Z,24.94
2016-05-31T06:10:32.312Z,24.97
2016-05-31T06:11:32.177Z,24.96
2016-05-31T06:12:32.182Z,24.94
2016-05-31T06:13:32.341Z,24.92
2016-05-31T06:14:32.362Z,24.9
2016-05-31T06:15:32.194Z,24.96
2016-05-31T06:16:32.353Z,24.94
2016-05-31T06:17:32.373Z,24.94
2016-05-31T06:18:32.251Z,24.94
2016-05-31T06:19:32.379Z,24.92
2016-05-31T06:20:32.257Z,24.94
2016-05-31T06:21:32.416Z,24.94
2016-05-31T06:22:32.436Z,24.96
2016-05-31T06:23:32.813Z,25.01
2016-05-31T06:24:32.456Z,25.02
2016-05-31T06:25:32.460Z,25
2016-05-31T06:26:32.493Z,25.01
2016-05-31T06:27:32.496Z,25.07
2016-05-31T06:28:32.498Z,24.96
2016-05-31T06:29:32.516Z,24.96
2016-05-31T06:30:32.348Z,25.04
2016-05-31T06:31:32.537Z,25.01
2016-05-31T06:32:32.556Z,25.05
2016-05-31T06:33:32.558Z,25.05
2016-05-31T06:34:32.577Z,25.01
2016-05-31T06:35:32.611Z,25.01
2016-05-31T06:36:32.426Z,25.02
2016-05-31T06:37:32.444Z,25.04
2016-05-31T06:38:32.463Z,25.05
2016-05-31T06:39:32.653Z,25.08
2016-05-31T06:40:32.452Z,25.11
2016-05-31T06:41:32.470Z,25.05
2016-05-31T06:42:32.645Z,25.05
2016-05-31T06:43:32.648Z,25.08
2016-05-31T06:44:32.494Z,25.05
2016-05-31T06:45:32.669Z,25.05
2016-05-31T06:46:32.671Z,25.05
2016-05-31T06:47:32.706Z,25.05
2016-05-31T06:48:32.708Z,25.09
2016-05-31T06:49:32.727Z,25.12
2016-05-31T06:50:32.714Z,25.08
2016-05-31T06:51:32.747Z,25.08
2016-05-31T06:52:32.735Z,25.08
2016-05-31T06:53:33.440Z,25.11
2016-05-31T06:54:32.755Z,25.09
2016-05-31T06:55:32.790Z,25.12
2016-05-31T06:56:32.808Z,25.14
2016-05-31T06:57:32.810Z,25.15
2016-05-31T06:58:32.798Z,25.05
2016-05-31T06:59:32.816Z,25.08
2016-05-31T07:00:32.679Z,25.09
2016-05-31T07:01:32.852Z,25.12
2016-05-31T07:02:32.684Z,25.09
2016-05-31T07:03:32.873Z,25.09
2016-05-31T07:04:32.860Z,25.09
2016-05-31T07:05:32.770Z,25.17
2016-05-31T07:06:32.881Z,25.07
2016-05-31T07:07:32.743Z,25.09
2016-05-31T07:08:33.684Z,25.07
2016-05-31T07:09:32.937Z,25.17
2016-05-31T07:10:32.923Z,25.14
2016-05-31T07:11:32.801Z,25.12
2016-05-31T07:12:32.975Z,25.11
2016-05-31T07:13:32.979Z,25.14
2016-05-31T07:14:32.966Z,25.17
2016-05-31T07:15:33.000Z,25.14
2016-05-31T07:16:33.002Z,25.2
2016-05-31T07:17:33.005Z,25.14
2016-05-31T07:18:33.007Z,25.23
2016-05-31T07:19:32.870Z,25.11
2016-05-31T07:20:33.044Z,25.14
2016-05-31T07:21:33.063Z,25.23
2016-05-31T07:22:33.471Z,25.22
2016-05-31T07:23:33.069Z,25.23
2016-05-31T07:24:33.071Z,25.26
2016-05-31T07:25:33.104Z,25.26
2016-05-31T07:26:33.091Z,25.26
2016-05-31T07:27:32.954Z,25.23
2016-05-31T07:28:33.113Z,25.33
2016-05-31T07:29:33.131Z,25.23
2016-05-31T07:30:33.149Z,25.34
2016-05-31T07:31:33.168Z,25.29
2016-05-31T07:32:33.171Z,25.32
2016-05-31T07:33:33.157Z,25.37
2016-05-31T07:34:33.020Z,25.26
2016-05-31T07:35:33.209Z,25.29
2016-05-31T07:36:33.196Z,25.27
2016-05-31T07:37:33.262Z,25.3
2016-05-31T07:38:33.234Z,25.34
2016-05-31T07:39:33.064Z,25.33
2016-05-31T07:40:33.239Z,25.32
2016-05-31T07:41:33.257Z,25.3
2016-05-31T07:42:33.259Z,25.32
2016-05-31T07:43:33.278Z,25.34
2016-05-31T07:44:33.280Z,25.39
2016-05-31T07:45:33.300Z,25.38
2016-05-31T07:46:33.318Z,25.41
2016-05-31T07:47:33.305Z,25.42
2016-05-31T07:48:33.322Z,25.39
2016-05-31T07:49:33.341Z,25.41
2016-05-31T07:50:33.344Z,25.45
2016-05-31T07:51:33.206Z,25.42
2016-05-31T07:52:33.396Z,25.45
2016-05-31T07:53:34.305Z,25.3
2016-05-31T07:54:33.385Z,25.39
2016-05-31T07:55:33.405Z,25.45
2016-05-31T07:56:33.407Z,25.45
2016-05-31T07:57:33.425Z,25.45
2016-05-31T07:58:33.427Z,25.42
2016-05-31T07:59:33.462Z,25.45
2016-05-31T08:00:33.433Z,25.41
2016-05-31T08:01:33.343Z,25.45
2016-05-31T08:02:33.454Z,25.47
2016-05-31T08:03:33.472Z,25.45
2016-05-31T08:04:33.491Z,25.44
2016-05-31T08:05:33.525Z,25.49
2016-05-31T08:06:33.527Z,25.49
2016-05-31T08:07:33.514Z,25.44
2016-05-31T08:08:33.532Z,25.44
2016-05-31T08:09:33.534Z,25.49
2016-05-31T08:10:33.554Z,25.52
2016-05-31T08:11:33.557Z,25.45
2016-05-31T08:12:33.575Z,25.48
2016-05-31T08:13:33.577Z,25.49
2016-05-31T08:14:33.612Z,25.49
2016-05-31T08:15:33.630Z,25.47
2016-05-31T08:16:33.633Z,25.44
2016-05-31T08:17:33.619Z,25.44
2016-05-31T08:18:33.638Z,25.49
2016-05-31T08:19:33.499Z,25.47
2016-05-31T08:20:33.658Z,25.49
2016-05-31T08:21:33.661Z,25.47
2016-05-31T08:22:33.695Z,25.48
2016-05-31T08:23:34.057Z,25.47
2016-05-31T08:24:33.700Z,25.47
2016-05-31T08:25:33.703Z,25.45
2016-05-31T08:26:33.738Z,25.44
2016-05-31T08:27:33.568Z,25.47
2016-05-31T08:28:33.774Z,25.45
2016-05-31T08:29:33.604Z,25.47
2016-05-31T08:30:33.452Z,25.48
2016-05-31T08:31:33.782Z,25.47
2016-05-31T08:32:33.769Z,25.47
2016-05-31T08:33:33.787Z,25.52
2016-05-31T08:34:33.806Z,25.49
2016-05-31T08:35:33.809Z,25.49
2016-05-31T08:36:33.826Z,25.45
2016-05-31T08:37:34.502Z,25.54
2016-05-31T08:38:33.848Z,25.47
2016-05-31T08:39:33.866Z,25.52
2016-05-31T08:40:33.884Z,25.51
2016-05-31T08:41:33.887Z,25.49
2016-05-31T08:42:33.921Z,25.48
2016-05-31T08:43:33.923Z,25.48
2016-05-31T08:44:33.926Z,25.49
2016-05-31T08:45:33.914Z,25.48
2016-05-31T08:46:33.931Z,25.48
2016-05-31T08:47:33.919Z,25.47
2016-05-31T08:48:33.781Z,25.47
2016-05-31T08:49:33.956Z,25.51
2016-05-31T08:50:33.974Z,25.47
2016-05-31T08:51:33.977Z,25.44
2016-05-31T08:52:33.838Z,25.54
2016-05-31T08:53:33.997Z,25.59
2016-05-31T08:54:33.860Z,25.47
2016-05-31T08:55:34.034Z,25.48
2016-05-31T08:56:33.880Z,25.54
2016-05-31T08:57:34.039Z,25.47
2016-05-31T08:58:34.058Z,25.51
2016-05-31T08:59:34.060Z,25.56
2016-05-31T09:00:34.079Z,25.57
2016-05-31T09:01:34.097Z,25.62
2016-05-31T09:02:34.099Z,25.57
2016-05-31T09:03:34.102Z,25.49
2016-05-31T09:04:34.121Z,25.48
2016-05-31T09:05:34.139Z,25.66
2016-05-31T09:06:33.829Z,25.69
2016-05-31T09:07:34.035Z,25.67
2016-05-31T09:08:34.054Z,25.6
2016-05-31T09:09:34.165Z,25.56
2016-05-31T09:10:34.184Z,25.54
2016-05-31T09:11:34.170Z,25.66
2016-05-31T09:12:34.189Z,25.66
2016-05-31T09:13:34.207Z,25.69
2016-05-31T09:14:34.226Z,25.66
2016-05-31T09:15:34.056Z,25.66
2016-05-31T09:16:34.090Z,25.63
2016-05-31T09:17:34.264Z,25.69
2016-05-31T09:18:34.268Z,25.66
2016-05-31T09:19:34.270Z,25.67
2016-05-31T09:20:34.289Z,25.62
2016-05-31T09:21:34.291Z,25.66
2016-05-31T09:22:34.451Z,25.63
2016-05-31T09:23:34.327Z,25.69
2016-05-31T09:24:34.159Z,25.64
2016-05-31T09:25:34.333Z,25.66
2016-05-31T09:26:34.336Z,25.71
2016-05-31T09:27:34.369Z,25.63
2016-05-31T09:28:34.217Z,25.67
2016-05-31T09:29:34.391Z,25.62
2016-05-31T09:30:34.378Z,25.67
2016-05-31T09:31:34.412Z,25.69
2016-05-31T09:32:34.400Z,25.64
2016-05-31T09:33:34.417Z,25.71
2016-05-31T09:34:34.421Z,25.63
2016-05-31T09:35:34.438Z,25.7
2016-05-31T09:36:34.300Z,25.63
2016-05-31T09:37:34.538Z,25.67
2016-05-31T09:38:34.541Z,25.69
2016-05-31T09:39:34.481Z,25.67
2016-05-31T09:40:34.484Z,25.7
2016-05-31T09:41:34.501Z,25.69
2016-05-31T09:42:34.379Z,25.74
2016-05-31T09:43:34.537Z,25.75
2016-05-31T09:44:34.384Z,25.63
2016-05-31T09:45:34.559Z,25.66
2016-05-31T09:46:34.546Z,25.66
2016-05-31T09:47:34.580Z,25.64
2016-05-31T09:48:34.567Z,25.66
2016-05-31T09:49:34.445Z,25.71
2016-05-31T09:50:34.573Z,25.69
2016-05-31T09:51:34.606Z,25.7
2016-05-31T09:52:34.484Z,25.64
2016-05-31T09:53:34.658Z,25.64
2016-05-31T09:54:34.646Z,25.66
2016-05-31T09:55:34.508Z,25.63
2016-05-31T09:56:34.667Z,25.66
2016-05-31T09:57:34.669Z,25.67
2016-05-31T09:58:34.688Z,25.6
2016-05-31T09:59:34.674Z,25.67
2016-05-31T10:00:34.538Z,25.63
2016-05-31T10:01:34.696Z,25.71
2016-05-31T10:02:34.699Z,25.69
2016-05-31T10:03:34.732Z,25.66
2016-05-31T10:04:34.735Z,25.66
2016-05-31T10:05:34.612Z,25.63
2016-05-31T10:06:34.757Z,25.64
2016-05-31T10:07:34.509Z,25.66
2016-05-31T10:08:34.637Z,25.52
2016-05-31T10:09:34.826Z,25.59
2016-05-31T10:10:34.815Z,25.59
2016-05-31T10:11:34.817Z,25.54
2016-05-31T10:12:34.820Z,25.63
2016-05-31T10:13:34.837Z,25.67
2016-05-31T10:14:34.684Z,25.56
2016-05-31T10:15:34.858Z,25.66
2016-05-31T10:16:34.877Z,25.69
2016-05-31T10:17:34.864Z,25.67
2016-05-31T10:18:34.742Z,25.67
2016-05-31T10:19:34.916Z,25.66
2016-05-31T10:20:34.763Z,25.7
2016-05-31T10:21:34.906Z,25.69
2016-05-31T10:22:34.939Z,25.64
2016-05-31T10:23:35.318Z,25.66
2016-05-31T10:24:34.992Z,25.67
2016-05-31T10:25:34.947Z,25.62
2016-05-31T10:26:34.997Z,25.71
2016-05-31T10:27:34.969Z,25.67
2016-05-31T10:28:34.847Z,25.7
2016-05-31T10:29:34.865Z,25.64
2016-05-31T10:30:35.039Z,25.63
2016-05-31T10:31:34.886Z,25.69
2016-05-31T10:32:35.060Z,25.7
2016-05-31T10:33:35.079Z,25.75
2016-05-31T10:34:35.191Z,25.74
2016-05-31T10:35:35.162Z,25.67
2016-05-31T10:36:35.087Z,25.69
2016-05-31T10:37:35.355Z,25.69
2016-05-31T10:38:35.765Z,25.67
2016-05-31T10:39:35.095Z,25.6
2016-05-31T10:40:34.957Z,25.64
2016-05-31T10:41:35.132Z,25.79
2016-05-31T10:42:34.821Z,25.76
2016-05-31T10:43:35.137Z,25.78
2016-05-31T10:44:35.156Z,25.78
2016-05-31T10:45:35.173Z,25.78
2016-05-31T10:46:35.176Z,25.82
2016-05-31T10:47:35.039Z,25.76
2016-05-31T10:48:35.212Z,25.75
2016-05-31T10:49:35.201Z,25.84
2016-05-31T10:50:35.234Z,25.78
2016-05-31T10:51:35.237Z,25.76
2016-05-31T10:52:35.380Z,25.74
2016-05-31T10:53:35.616Z,25.74
2016-05-31T10:54:35.120Z,25.71
2016-05-31T10:55:35.122Z,25.76
2016-05-31T10:56:35.266Z,25.67
2016-05-31T10:57:35.300Z,25.67
2016-05-31T10:58:35.302Z,25.69
2016-05-31T10:59:35.305Z,25.78
2016-05-31T11:00:35.324Z,25.7
2016-05-31T11:01:35.341Z,25.74
2016-05-31T11:02:35.360Z,25.64
2016-05-31T11:03:35.363Z,25.67
2016-05-31T11:04:35.380Z,25.63
2016-05-31T11:05:35.383Z,25.67
2016-05-31T11:06:35.402Z,25.62
2016-05-31T11:07:35.888Z,25.67
2016-05-31T11:08:35.267Z,25.64
2016-05-31T11:09:35.410Z,25.62
2016-05-31T11:10:35.443Z,25.66
2016-05-31T11:11:35.431Z,25.66
2016-05-31T11:12:35.465Z,25.69
2016-05-31T11:13:35.467Z,25.63
2016-05-31T11:14:35.487Z,25.64
2016-05-31T11:15:35.489Z,25.67
2016-05-31T11:16:35.507Z,25.74
2016-05-31T11:17:35.495Z,25.67
2016-05-31T11:18:35.528Z,25.64
2016-05-31T11:19:35.359Z,25.79
2016-05-31T11:20:35.517Z,25.76
2016-05-31T11:21:35.536Z,25.67
2016-05-31T11:22:35.554Z,25.69
2016-05-31T11:23:36.261Z,25.75
2016-05-31T11:24:35.591Z,25.66
2016-05-31T11:25:35.594Z,25.74
2016-05-31T11:26:35.612Z,25.7
2016-05-31T11:27:35.614Z,25.66
2016-05-31T11:28:35.633Z,25.69
2016-05-31T11:29:35.620Z,25.75
2016-05-31T11:30:35.497Z,25.64
2016-05-31T11:31:35.641Z,25.67
2016-05-31T11:32:35.502Z,25.69
2016-05-31T11:33:35.663Z,25.69
2016-05-31T11:34:35.508Z,25.75
2016-05-31T11:35:35.714Z,25.66
2016-05-31T11:36:35.701Z,25.67
2016-05-31T11:37:35.594Z,25.67
2016-05-31T11:38:35.815Z,25.67
2016-05-31T11:39:35.771Z,25.71
2016-05-31T11:40:35.744Z,25.71
2016-05-31T11:41:35.605Z,25.56
2016-05-31T11:42:35.764Z,24.92
2016-05-31T11:43:35.783Z,24.77
2016-05-31T11:44:35.785Z,24.26
2016-05-31T11:45:35.632Z,23.87
2016-05-31T11:46:35.807Z,23.82
2016-05-31T11:47:35.653Z,23.79
2016-05-31T11:48:35.811Z,23.52
2016-05-31T11:49:35.830Z,23.57
2016-05-31T11:50:35.676Z,23.75
2016-05-31T11:51:35.882Z,24
2016-05-31T11:52:35.729Z,23.82
2016-05-31T11:53:36.950Z,23.77
2016-05-31T11:54:35.719Z,23.81
2016-05-31T11:55:35.892Z,23.67
2016-05-31T11:56:35.724Z,23.56
2016-05-31T11:57:35.914Z,23.56
2016-05-31T11:58:35.901Z,23.37
2016-05-31T11:59:35.935Z,23.19
2016-05-31T12:00:35.922Z,23.34
2016-05-31T12:01:35.643Z,23.1
2016-05-31T12:02:35.943Z,23
2016-05-31T12:03:35.947Z,23.1
2016-05-31T12:04:35.949Z,23.37
2016-05-31T12:05:35.967Z,23.14
2016-05-31T12:06:35.829Z,22.82
2016-05-31T12:07:36.956Z,22.89
2016-05-31T12:08:35.850Z,22.84
2016-05-31T12:09:35.994Z,22.94
2016-05-31T12:10:35.840Z,23.12
2016-05-31T12:11:36.015Z,22.96
2016-05-31T12:12:36.001Z,23.01
2016-05-31T12:13:35.879Z,23.19
2016-05-31T12:14:36.007Z,23.16
2016-05-31T12:15:36.056Z,23.03
2016-05-31T12:16:35.903Z,23.04
2016-05-31T12:17:36.062Z,23.04
2016-05-31T12:18:36.064Z,23.01
2016-05-31T12:19:36.067Z,22.89
2016-05-31T12:20:36.101Z,22.81
2016-05-31T12:21:36.088Z,22.96
2016-05-31T12:22:36.545Z,23
2016-05-31T12:23:37.140Z,23.07
2016-05-31T12:24:36.111Z,23.07
2016-05-31T12:25:36.114Z,23.07
2016-05-31T12:26:36.133Z,23.16
2016-05-31T12:27:36.136Z,22.99
2016-05-31T12:28:36.153Z,22.92
2016-05-31T12:29:36.125Z,22.7
2016-05-31T12:30:36.159Z,22.6
2016-05-31T12:31:36.146Z,22.69
2016-05-31T12:32:36.008Z,22.81
2016-05-31T12:33:36.151Z,22.66
2016-05-31T12:34:36.185Z,22.7
2016-05-31T12:35:36.172Z,22.88
2016-05-31T12:36:36.191Z,22.44
2016-05-31T12:37:36.366Z,22.41
2016-05-31T12:38:37.399Z,22.42
2016-05-31T12:39:36.215Z,22.44
2016-05-31T12:40:36.529Z,22.3
2016-05-31T12:41:36.235Z,22.54
2016-05-31T12:42:36.254Z,22.71
2016-05-31T12:43:36.241Z,22.82
2016-05-31T12:44:36.274Z,22.63
2016-05-31T12:45:36.246Z,22.36
2016-05-31T12:46:36.279Z,22.46
2016-05-31T12:47:36.251Z,22.39
2016-05-31T12:48:36.302Z,22.11
2016-05-31T12:49:36.132Z,22.22
2016-05-31T12:50:36.323Z,22.09
2016-05-31T12:51:36.325Z,22.08
2016-05-31T12:52:36.171Z,21.89
2016-05-31T12:53:36.736Z,22.09
2016-05-31T12:54:36.317Z,22.18
2016-05-31T12:55:36.351Z,22.38